Time;durP1;ratioP1;P1;durP2;ratioP2;P2;SDS_P1;SDS_P2;PMS_P1;PMS_P2;Temp;Humidity;BMP_temperature;BMP_pressure;BME280_temperature;BME280_humidity;BME280_pressure;Samples;Min_cycle;Max_cycle;Signal;HPM_P1;HPM_P2
2022/12/24 00:02:07;;;;;;;16.73;7.57;;;9.70;99.90;;;;;;5114415;27;20396;-88
2022/12/24 00:04:33;;;;;;;15.95;7.68;;;9.70;99.90;;;;;;5111873;27;20041;-89
2022/12/24 00:06:58;;;;;;;13.55;6.78;;;9.70;99.90;;;;;;5095196;28;20048;-90
2022/12/24 00:09:24;;;;;;;13.30;6.88;;;9.70;99.90;;;;;;5094633;28;20044;-89
2022/12/24 00:11:49;;;;;;;15.55;7.82;;;9.70;99.90;;;;;;5113322;28;20071;-89
2022/12/24 00:14:15;;;;;;;12.52;5.93;;;9.70;99.90;;;;;;5094770;28;20044;-89
2022/12/24 00:16:41;;;;;;;15.50;7.07;;;9.70;99.90;;;;;;5094574;28;20087;-90
2022/12/24 00:19:06;;;;;;;17.40;6.97;;;9.70;99.90;;;;;;5094491;28;20043;-90
2022/12/24 00:21:32;;;;;;;15.77;7.82;;;9.70;99.90;;;;;;5097276;27;20038;-90
2022/12/24 00:23:57;;;;;;;14.68;7.18;;;9.70;99.90;;;;;;5114228;27;20492;-90
2022/12/24 00:26:23;;;;;;;12.43;7.03;;;9.70;99.90;;;;;;5114537;27;20054;-90
2022/12/24 00:28:49;;;;;;;17.15;8.00;;;9.70;99.90;;;;;;5094455;28;20580;-91
2022/12/24 00:31:17;;;;;;;16.90;8.00;;;9.60;99.90;;;;;;5094549;28;20043;-89
2022/12/24 00:33:45;;;;;;;18.17;6.65;;;9.60;99.90;;;;;;5111593;28;20054;-90
2022/12/24 00:36:10;;;;;;;15.00;7.53;;;9.60;99.90;;;;;;5094526;28;20404;-90
2022/12/24 00:38:36;;;;;;;14.68;7.45;;;9.60;99.90;;;;;;5102405;28;20032;-89
2022/12/24 00:41:04;;;;;;;14.15;6.13;;;9.60;99.90;;;;;;5093824;28;20043;-89
2022/12/24 00:43:30;;;;;;;11.13;5.97;;;9.60;99.90;;;;;;5117758;27;20043;-89
2022/12/24 00:45:57;;;;;;;14.90;6.72;;;9.60;99.90;;;;;;5114324;27;20047;-90
2022/12/24 00:48:23;;;;;;;13.95;7.15;;;9.60;99.90;;;;;;5114347;27;20047;-90
2022/12/24 00:50:49;;;;;;;10.95;5.70;;;9.60;99.90;;;;;;5109579;28;20047;-90
2022/12/24 00:53:17;;;;;;;11.80;5.65;;;9.60;99.90;;;;;;5076678;28;20078;-90
2022/12/24 00:55:43;;;;;;;9.25;3.67;;;9.60;99.90;;;;;;5102321;27;20071;-89
2022/12/24 00:58:08;;;;;;;10.25;5.10;;;9.60;99.90;;;;;;5114541;27;20078;-90
2022/12/24 01:00:34;;;;;;;10.40;3.97;;;9.60;99.90;;;;;;5113813;27;20035;-90
2022/12/24 01:02:59;;;;;;;9.95;5.15;;;9.60;99.90;;;;;;5112919;27;20039;-89
2022/12/24 01:05:25;;;;;;;10.75;4.15;;;9.60;99.90;;;;;;5132856;27;20040;-90
2022/12/24 01:07:52;;;;;;;8.80;3.25;;;9.60;99.90;;;;;;5114429;27;20510;-89
2022/12/24 01:10:19;;;;;;;8.48;3.33;;;9.60;99.90;;;;;;5113704;27;20138;-90
2022/12/24 01:12:45;;;;;;;7.40;2.65;;;9.60;99.90;;;;;;5132209;27;20089;-90
2022/12/24 01:15:12;;;;;;;9.07;3.50;;;9.60;99.90;;;;;;5130907;27;20039;-89
2022/12/24 01:17:39;;;;;;;8.35;4.28;;;9.60;99.90;;;;;;5106481;27;20110;-90
2022/12/24 01:20:07;;;;;;;10.20;3.90;;;9.60;99.90;;;;;;5113835;27;20047;-89
2022/12/24 01:22:33;;;;;;;8.38;3.53;;;9.60;99.90;;;;;;5091641;28;20039;-90
2022/12/24 01:24:58;;;;;;;9.27;4.47;;;9.60;99.90;;;;;;5092856;28;20047;-90
2022/12/24 01:27:24;;;;;;;9.48;4.43;;;9.60;99.90;;;;;;5093904;28;20039;-89
2022/12/24 01:29:49;;;;;;;11.13;5.13;;;9.60;99.90;;;;;;5111677;27;20043;-90
2022/12/24 01:32:15;;;;;;;10.52;3.75;;;9.60;99.90;;;;;;5113537;27;20035;-89
2022/12/24 01:34:41;;;;;;;9.10;4.45;;;9.70;99.90;;;;;;5093630;28;20077;-90
2022/12/24 01:37:06;;;;;;;11.93;5.15;;;9.70;99.90;;;;;;5107167;27;20478;-89
2022/12/24 01:39:32;;;;;;;12.73;5.68;;;9.70;99.90;;;;;;5113614;27;20027;-89
2022/12/24 01:44:46;;;;;;;10.07;4.53;;;9.70;99.90;;;;;;5092960;28;20047;-90
2022/12/24 01:47:21;;;;;;;11.15;4.93;;;9.70;99.90;;;;;;5092919;28;20493;-89
2022/12/24 01:49:58;;;;;;;9.07;4.32;;;9.70;99.90;;;;;;5106584;27;20453;-89
2022/12/24 01:52:28;;;;;;;8.85;3.72;;;9.70;99.90;;;;;;5113093;27;20484;-89
2022/12/24 01:55:09;;;;;;;9.63;3.95;;;9.70;99.90;;;;;;5110622;27;20051;-89
2022/12/24 01:57:40;;;;;;;9.25;3.75;;;9.70;99.90;;;;;;5092965;28;20115;-90
2022/12/24 02:00:10;;;;;;;8.75;2.85;;;9.70;99.90;;;;;;5094180;28;20151;-90
2022/12/24 02:02:38;;;;;;;6.80;2.22;;;9.70;99.90;;;;;;5111563;27;20035;-89
2022/12/24 02:05:18;;;;;;;5.00;1.77;;;9.70;99.90;;;;;;5131593;27;20515;-90
2022/12/24 02:07:44;;;;;;;8.82;2.00;;;9.70;99.90;;;;;;5103677;27;20051;-88
2022/12/24 02:10:11;;;;;;;10.23;2.55;;;9.70;99.90;;;;;;5113202;27;20043;-89
2022/12/24 02:12:39;;;;;;;10.05;2.80;;;9.60;99.90;;;;;;5130196;27;20381;-90
2022/12/24 02:15:06;;;;;;;14.10;3.05;;;9.60;99.90;;;;;;5105915;28;20496;-90
2022/12/24 02:17:45;;;;;;;14.73;3.05;;;9.60;99.90;;;;;;5092830;28;20061;-89
2022/12/24 02:20:37;;;;;;;12.55;3.05;;;9.60;99.90;;;;;;5118935;27;20047;-89
2022/12/24 02:23:33;;;;;;;20.67;4.97;;;9.50;99.90;;;;;;5091780;28;20078;-89
2022/12/24 02:26:16;;;;;;;31.58;4.78;;;9.50;99.90;;;;;;5092389;28;20417;-89
2022/12/24 02:28:58;;;;;;;20.38;3.67;;;9.50;99.90;;;;;;5092417;28;20044;-90
2022/12/24 02:31:49;;;;;;;24.55;4.85;;;9.50;99.90;;;;;;5076714;27;20047;-90
2022/12/24 02:34:31;;;;;;;22.63;4.53;;;9.50;99.90;;;;;;5112037;27;20050;-90
2022/12/24 02:37:06;;;;;;;23.63;4.03;;;9.50;99.90;;;;;;5112961;28;20535;-89
2022/12/24 02:39:46;;;;;;;27.30;4.50;;;9.50;99.90;;;;;;5121378;28;20110;-89
2022/12/24 02:42:16;;;;;;;17.80;3.72;;;9.50;99.90;;;;;;5111912;28;20096;-89
2022/12/24 02:44:45;;;;;;;19.30;3.65;;;9.50;99.90;;;;;;5112015;28;20043;-88
2022/12/24 02:47:13;;;;;;;20.33;4.82;;;9.50;99.90;;;;;;5112742;28;20043;-89
2022/12/24 02:49:44;;;;;;;20.63;3.10;;;9.60;99.90;;;;;;5112971;28;20412;-89
2022/12/24 02:52:37;;;;;;;17.25;3.47;;;9.60;99.90;;;;;;5122856;28;20389;-89
2022/12/24 02:55:31;;;;;;;17.10;3.35;;;9.70;99.90;;;;;;5091843;28;20390;-89
2022/12/24 02:58:26;;;;;;;21.52;3.33;;;9.70;99.90;;;;;;5100500;28;20047;-89
2022/12/24 03:01:15;;;;;;;12.73;2.95;;;9.70;99.90;;;;;;5111428;28;20047;-89
2022/12/24 03:04:15;;;;;;;17.00;3.65;;;9.80;99.90;;;;;;5111250;28;20524;-89
2022/12/24 03:06:54;;;;;;;19.95;3.25;;;9.80;99.90;;;;;;5076188;28;20047;-89
2022/12/24 03:09:37;;;;;;;18.40;2.85;;;9.80;99.90;;;;;;5095051;28;20062;-89
2022/12/24 03:12:12;;;;;;;23.35;4.05;;;9.80;99.90;;;;;;5134568;27;20103;-89
2022/12/24 03:14:40;;;;;;;16.73;2.65;;;9.90;99.90;;;;;;5113000;27;20046;-89
2022/12/24 03:17:06;;;;;;;15.68;2.58;;;9.90;99.90;;;;;;5095771;28;20039;-90
2022/12/24 03:19:33;;;;;;;28.25;4.35;;;9.90;99.90;;;;;;5096209;28;20058;-89
2022/12/24 03:22:01;;;;;;;18.92;3.33;;;9.90;99.90;;;;;;5124458;27;20602;-89
2022/12/24 03:24:27;;;;;;;25.48;4.65;;;9.90;99.90;;;;;;5133971;27;20070;-89
2022/12/24 03:26:52;;;;;;;18.25;3.20;;;9.90;99.90;;;;;;5134779;27;20396;-89
2022/12/24 03:29:18;;;;;;;21.30;3.22;;;9.90;99.90;;;;;;5095453;28;20122;-91
2022/12/24 03:31:51;;;;;;;22.48;3.75;;;9.90;99.90;;;;;;5095340;28;20040;-89
2022/12/24 03:34:17;;;;;;;16.25;2.88;;;9.90;99.90;;;;;;5104774;27;20043;-89
2022/12/24 03:36:44;;;;;;;19.52;3.35;;;9.90;99.90;;;;;;5116252;27;20697;-90
2022/12/24 03:39:10;;;;;;;24.95;4.60;;;9.90;99.90;;;;;;5115630;27;20046;-89
2022/12/24 03:41:36;;;;;;;16.67;3.00;;;9.90;99.90;;;;;;5133298;27;20035;-89
2022/12/24 03:44:03;;;;;;;20.73;3.55;;;9.80;99.90;;;;;;5133382;27;20046;-89
2022/12/24 03:46:28;;;;;;;20.38;4.47;;;9.80;99.90;;;;;;5115846;27;20080;-89
2022/12/24 03:48:54;;;;;;;20.92;3.75;;;9.80;99.90;;;;;;5124035;27;20462;-89
2022/12/24 03:51:22;;;;;;;23.92;3.63;;;9.80;99.90;;;;;;5115502;27;20046;-89
2022/12/24 03:53:47;;;;;;;28.27;5.75;;;9.90;99.90;;;;;;5132917;27;20039;-89
2022/12/24 03:56:13;;;;;;;28.83;5.57;;;9.80;99.90;;;;;;5098656;28;20096;-89
2022/12/24 03:58:39;;;;;;;22.83;6.40;;;9.80;99.90;;;;;;5095286;28;20045;-89
2022/12/24 04:01:04;;;;;;;23.85;3.80;;;9.80;99.90;;;;;;5103112;27;20039;-89
2022/12/24 04:03:30;;;;;;;21.10;3.53;;;9.80;99.90;;;;;;5114743;27;20042;-90
2022/12/24 04:06:06;;;;;;;21.65;3.72;;;9.80;99.90;;;;;;5114755;27;20084;-89
2022/12/24 04:08:32;;;;;;;23.02;3.95;;;9.80;99.90;;;;;;5097757;28;20055;-89
2022/12/24 04:10:58;;;;;;;24.52;3.92;;;9.80;99.90;;;;;;5094884;28;20048;-89
2022/12/24 04:13:24;;;;;;;30.08;4.75;;;9.80;99.90;;;;;;5111789;27;20088;-89
2022/12/24 04:16:03;;;;;;;26.92;4.10;;;9.90;99.90;;;;;;5114862;27;20039;-89
2022/12/24 04:18:29;;;;;;;24.17;3.58;;;9.80;99.90;;;;;;5104596;27;20384;-89
2022/12/24 04:20:55;;;;;;;24.70;4.10;;;9.80;99.90;;;;;;5114538;28;20050;-89
2022/12/24 04:23:21;;;;;;;26.60;4.95;;;9.80;99.90;;;;;;5113581;27;20043;-89
2022/12/24 04:25:47;;;;;;;25.27;4.25;;;9.80;99.90;;;;;;5114865;27;20043;-89
2022/12/24 04:28:14;;;;;;;19.55;3.60;;;9.80;99.90;;;;;;5115341;27;20062;-89
2022/12/24 04:30:40;;;;;;;22.63;4.28;;;9.80;99.90;;;;;;5117960;27;20032;-89
2022/12/24 04:33:06;;;;;;;23.98;3.60;;;9.80;99.90;;;;;;5094134;28;20047;-89
2022/12/24 04:35:32;;;;;;;23.00;4.18;;;9.80;99.90;;;;;;5094218;28;20452;-89
2022/12/24 04:37:58;;;;;;;30.77;4.55;;;9.80;99.90;;;;;;5093538;28;20043;-89
2022/12/24 04:40:24;;;;;;;26.98;4.63;;;9.80;99.90;;;;;;5094296;28;20412;-90
2022/12/24 04:42:50;;;;;;;22.10;3.58;;;9.80;99.90;;;;;;5100055;27;20092;-89
2022/12/24 04:45:16;;;;;;;30.15;4.05;;;9.80;99.90;;;;;;5114539;27;20434;-90
2022/12/24 04:47:42;;;;;;;20.30;5.07;;;9.80;99.90;;;;;;5111125;27;20492;-89
2022/12/24 04:50:09;;;;;;;22.30;3.88;;;9.80;99.90;;;;;;5109121;27;20039;-89
2022/12/24 04:52:35;;;;;;;24.80;5.45;;;9.80;99.90;;;;;;5114752;27;20107;-89
2022/12/24 04:55:00;;;;;;;25.88;4.22;;;9.80;99.90;;;;;;5113383;27;20499;-90
2022/12/24 04:57:26;;;;;;;26.42;4.35;;;9.80;99.90;;;;;;5114062;27;20112;-89
2022/12/24 04:59:52;;;;;;;22.38;4.10;;;9.80;99.90;;;;;;5114242;27;20039;-90
2022/12/24 05:02:17;;;;;;;22.20;4.13;;;9.80;99.90;;;;;;5094430;28;20047;-89
2022/12/24 05:04:43;;;;;;;29.48;3.72;;;9.80;99.90;;;;;;5093366;28;20694;-89
2022/12/24 05:07:08;;;;;;;20.38;3.92;;;9.80;99.90;;;;;;5101399;27;20039;-90
2022/12/24 05:09:34;;;;;;;24.10;5.45;;;9.80;99.90;;;;;;5113627;27;20500;-90
2022/12/24 05:12:00;;;;;;;26.23;4.88;;;9.80;99.90;;;;;;5113261;27;20039;-89
2022/12/24 05:14:25;;;;;;;25.67;4.05;;;9.70;99.90;;;;;;5113239;27;20047;-90
2022/12/24 05:16:51;;;;;;;22.67;4.30;;;9.80;99.90;;;;;;5113726;27;20043;-90
2022/12/24 05:19:17;;;;;;;23.13;4.45;;;9.80;99.90;;;;;;5113381;27;20467;-90
2022/12/24 05:21:42;;;;;;;23.63;4.72;;;9.80;99.90;;;;;;5113825;27;20054;-90
2022/12/24 05:26:56;;;;;;;22.33;4.30;;;9.80;99.90;;;;;;5093019;28;20043;-89
2022/12/24 05:29:23;;;;;;;26.13;4.38;;;9.80;99.90;;;;;;5093107;28;20446;-90
2022/12/24 05:31:48;;;;;;;21.52;3.90;;;9.80;99.90;;;;;;5107143;27;20086;-90
2022/12/24 05:34:15;;;;;;;21.00;5.50;;;9.70;99.90;;;;;;5112073;27;20059;-89
2022/12/24 05:36:41;;;;;;;20.45;4.45;;;9.70;99.90;;;;;;5092603;28;20074;-89
2022/12/24 05:39:09;;;;;;;30.67;5.43;;;9.70;99.90;;;;;;5092395;28;20495;-89
2022/12/24 05:41:34;;;;;;;25.02;4.43;;;9.70;99.90;;;;;;5092340;28;20739;-89
2022/12/24 05:44:00;;;;;;;24.30;5.20;;;9.70;99.90;;;;;;5109982;28;20149;-89
2022/12/24 05:46:26;;;;;;;27.27;4.70;;;9.70;99.90;;;;;;5093211;28;20110;-89
2022/12/24 05:48:52;;;;;;;24.08;4.93;;;9.70;99.90;;;;;;5100559;27;20408;-90
2022/12/24 05:51:21;;;;;;;31.65;5.07;;;9.70;99.90;;;;;;5113192;27;20039;-90
2022/12/24 05:53:47;;;;;;;26.40;4.35;;;9.70;99.90;;;;;;5103711;28;20052;-90
2022/12/24 05:56:22;;;;;;;23.10;4.38;;;9.70;99.90;;;;;;5092283;28;20092;-89
2022/12/24 05:58:49;;;;;;;35.15;5.10;;;9.70;99.90;;;;;;5098869;27;20043;-90
2022/12/24 06:01:15;;;;;;;26.13;4.97;;;9.70;99.90;;;;;;5113650;27;20100;-90
2022/12/24 06:03:41;;;;;;;20.15;5.85;;;9.60;99.90;;;;;;5112998;27;20511;-89
2022/12/24 06:06:18;;;;;;;24.90;4.20;;;9.60;99.90;;;;;;5112413;27;20507;-89
2022/12/24 06:08:43;;;;;;;28.52;5.47;;;9.60;99.90;;;;;;5131818;27;20043;-90
2022/12/24 06:11:11;;;;;;;25.58;4.60;;;9.60;99.90;;;;;;5121333;27;20035;-89
2022/12/24 06:13:38;;;;;;;27.90;4.88;;;9.60;99.90;;;;;;5112432;27;20127;-90
2022/12/24 06:16:05;;;;;;;23.67;5.30;;;9.60;99.90;;;;;;5109563;27;20606;-89
2022/12/24 06:18:33;;;;;;;21.25;3.83;;;9.60;99.90;;;;;;5106982;27;20507;-90
2022/12/24 06:20:59;;;;;;;29.88;5.13;;;9.60;99.90;;;;;;5113613;27;20504;-90
2022/12/24 06:23:27;;;;;;;29.55;3.90;;;9.60;99.90;;;;;;5122549;27;20518;-90
2022/12/24 06:25:56;;;;;;;21.77;4.50;;;9.60;99.90;;;;;;5111955;27;20038;-90
2022/12/24 06:28:21;;;;;;;19.17;3.53;;;9.60;99.90;;;;;;5096297;27;20051;-89
2022/12/24 06:30:49;;;;;;;26.33;4.80;;;9.60;99.90;;;;;;5103247;28;20035;-90
2022/12/24 06:33:15;;;;;;;36.65;4.40;;;9.60;99.90;;;;;;5112318;27;20107;-90
2022/12/24 06:35:41;;;;;;;20.75;3.85;;;9.60;99.90;;;;;;5102608;28;20506;-89
2022/12/24 06:38:07;;;;;;;28.17;4.47;;;9.60;99.90;;;;;;5112553;28;20032;-90
2022/12/24 06:40:32;;;;;;;21.60;3.90;;;9.60;99.90;;;;;;5102456;28;20035;-90
2022/12/24 06:42:58;;;;;;;23.85;3.58;;;9.60;99.90;;;;;;5092050;28;20039;-90
2022/12/24 06:45:23;;;;;;;21.35;3.80;;;9.60;99.90;;;;;;5092213;28;20449;-90
2022/12/24 06:47:49;;;;;;;21.85;5.00;;;9.50;99.90;;;;;;5105091;28;20058;-90
2022/12/24 06:50:15;;;;;;;25.20;3.92;;;9.50;99.90;;;;;;5096529;28;20409;-90
2022/12/24 06:52:40;;;;;;;18.90;3.47;;;9.50;99.90;;;;;;5095319;28;20126;-89
2022/12/24 06:55:07;;;;;;;27.88;5.03;;;9.40;99.90;;;;;;5132489;27;20412;-90
2022/12/24 06:57:32;;;;;;;23.27;3.78;;;9.40;99.90;;;;;;5126391;27;20043;-90
2022/12/24 06:59:58;;;;;;;20.83;3.92;;;9.30;99.90;;;;;;5101301;28;20036;-89
2022/12/24 07:02:24;;;;;;;28.15;3.85;;;9.30;99.90;;;;;;5096072;28;20031;-90
2022/12/24 07:04:50;;;;;;;26.45;3.67;;;9.20;99.90;;;;;;5095567;28;20080;-90
2022/12/24 07:07:15;;;;;;;21.60;3.38;;;9.10;99.90;;;;;;5108578;27;20412;-89
2022/12/24 07:09:41;;;;;;;23.20;4.07;;;9.10;99.90;;;;;;5116787;27;20054;-89
2022/12/24 07:12:07;;;;;;;30.63;4.15;;;9.10;99.90;;;;;;5108818;28;20051;-89
2022/12/24 07:14:32;;;;;;;22.77;5.47;;;9.00;99.90;;;;;;5132246;27;20139;-89
2022/12/24 07:16:58;;;;;;;23.33;4.78;;;8.90;99.90;;;;;;5116372;27;20047;-90
2022/12/24 07:19:24;;;;;;;17.42;3.53;;;8.90;99.90;;;;;;5118562;27;20488;-90
2022/12/24 07:21:49;;;;;;;14.45;3.42;;;8.90;99.90;;;;;;5116570;27;20074;-90
2022/12/24 07:24:15;;;;;;;22.10;4.20;;;8.80;99.90;;;;;;5115817;27;20126;-90
2022/12/24 07:26:41;;;;;;;20.40;4.35;;;8.80;99.90;;;;;;5134251;27;20385;-90
2022/12/24 07:29:06;;;;;;;29.80;4.70;;;8.80;99.90;;;;;;5133693;27;20041;-90
2022/12/24 07:31:32;;;;;;;33.05;4.97;;;8.80;99.90;;;;;;5128048;27;20031;-90
2022/12/24 07:33:58;;;;;;;27.55;5.00;;;8.80;99.90;;;;;;5095878;28;20451;-90
2022/12/24 07:36:24;;;;;;;18.52;4.10;;;8.80;99.90;;;;;;5094900;28;20507;-90
2022/12/24 07:38:50;;;;;;;28.98;4.28;;;8.90;99.90;;;;;;5095052;28;20042;-91
2022/12/24 07:41:15;;;;;;;26.17;4.53;;;8.90;99.90;;;;;;5096057;28;20032;-91
2022/12/24 07:43:41;;;;;;;27.90;3.75;;;8.90;99.90;;;;;;5100804;27;20100;-91
2022/12/24 07:46:07;;;;;;;24.38;4.57;;;8.90;99.90;;;;;;5115502;27;20043;-90
2022/12/24 07:48:33;;;;;;;26.42;4.80;;;9.00;99.90;;;;;;5109657;28;20039;-91
2022/12/24 07:50:59;;;;;;;27.33;4.50;;;9.00;99.90;;;;;;5112988;27;20047;-90
2022/12/24 07:53:26;;;;;;;23.45;3.80;;;9.00;99.90;;;;;;5115031;27;20055;-90
2022/12/24 07:55:52;;;;;;;17.52;4.03;;;9.00;99.90;;;;;;5132615;27;20043;-91
2022/12/24 07:58:18;;;;;;;20.58;4.03;;;9.00;99.90;;;;;;5098859;27;20065;-91
2022/12/24 08:00:43;;;;;;;25.55;3.83;;;9.00;99.90;;;;;;5110883;27;20046;-90
2022/12/24 08:03:19;;;;;;;24.60;4.13;;;9.10;99.90;;;;;;5094928;28;20047;-91
2022/12/24 08:05:46;;;;;;;23.15;4.60;;;9.00;99.90;;;;;;5115259;27;20039;-90
2022/12/24 08:08:12;;;;;;;23.17;4.22;;;9.10;99.90;;;;;;5117708;27;20043;-90
2022/12/24 08:10:41;;;;;;;25.92;4.55;;;9.10;99.90;;;;;;5115515;27;20400;-90
2022/12/24 08:13:07;;;;;;;29.27;5.05;;;9.20;99.90;;;;;;5108053;28;20093;-91
2022/12/24 08:15:33;;;;;;;26.80;4.97;;;9.20;99.90;;;;;;5077465;28;20047;-90
2022/12/24 08:17:58;;;;;;;27.50;5.45;;;9.20;99.90;;;;;;5112703;28;20579;-90
2022/12/24 08:20:24;;;;;;;26.80;4.95;;;9.20;99.90;;;;;;5103157;28;20736;-90
2022/12/24 08:22:50;;;;;;;31.70;5.25;;;9.20;99.90;;;;;;5094508;28;20051;-91
2022/12/24 08:25:15;;;;;;;25.65;4.50;;;9.30;99.90;;;;;;5103990;27;20046;-90
2022/12/24 08:27:41;;;;;;;22.27;5.35;;;9.30;99.90;;;;;;5114975;27;20050;-90
2022/12/24 08:30:07;;;;;;;31.98;5.43;;;9.30;99.90;;;;;;5111971;27;20035;-91
2022/12/24 08:32:33;;;;;;;30.02;4.53;;;9.40;99.90;;;;;;5125589;27;20039;-90
2022/12/24 08:34:59;;;;;;;34.78;6.65;;;9.40;99.90;;;;;;5114069;27;20043;-90
2022/12/24 08:37:24;;;;;;;23.23;4.43;;;9.40;99.90;;;;;;5104846;28;20109;-90
2022/12/24 08:39:50;;;;;;;25.27;4.25;;;9.50;99.90;;;;;;5093915;28;20047;-90
2022/12/24 08:42:15;;;;;;;26.20;4.85;;;9.50;99.90;;;;;;5098729;27;20122;-90
2022/12/24 08:44:41;;;;;;;23.98;5.25;;;9.50;99.90;;;;;;5080165;28;20043;-90
2022/12/24 08:47:07;;;;;;;24.55;5.32;;;9.50;99.90;;;;;;5093912;28;20059;-90
2022/12/24 08:49:32;;;;;;;30.15;5.00;;;9.50;99.90;;;;;;5100542;27;20069;-91
2022/12/24 08:51:58;;;;;;;29.48;5.30;;;9.50;99.90;;;;;;5132034;27;20041;-90
2022/12/24 08:54:24;;;;;;;25.33;4.60;;;9.60;99.90;;;;;;5108654;28;20517;-90
2022/12/24 08:56:50;;;;;;;22.25;3.88;;;9.60;99.90;;;;;;5092916;28;20040;-90
2022/12/24 08:59:16;;;;;;;22.83;4.10;;;9.70;99.90;;;;;;5093498;28;20070;-89
2022/12/24 09:01:42;;;;;;;30.05;5.28;;;9.70;99.90;;;;;;5107888;27;20067;-90
2022/12/24 09:04:08;;;;;;;25.98;4.93;;;9.70;99.90;;;;;;5122882;27;20149;-91
2022/12/24 09:06:34;;;;;;;27.35;4.90;;;9.70;99.90;;;;;;5115811;27;20039;-90
2022/12/24 09:09:00;;;;;;;25.23;5.82;;;9.70;99.90;;;;;;5113286;27;20485;-90
2022/12/24 09:11:26;;;;;;;23.83;5.78;;;9.70;99.90;;;;;;5113729;27;20053;-90
2022/12/24 09:13:53;;;;;;;24.13;4.55;;;9.80;99.90;;;;;;5100142;28;20039;-90
2022/12/24 09:16:19;;;;;;;23.60;5.50;;;9.70;99.90;;;;;;5092690;28;20448;-90
2022/12/24 09:18:44;;;;;;;25.92;6.00;;;9.80;99.90;;;;;;5092221;28;20043;-90
2022/12/24 09:21:13;;;;;;;30.45;5.60;;;9.80;99.90;;;;;;5114595;27;20038;-91
2022/12/24 09:23:40;;;;;;;29.65;5.30;;;9.80;99.90;;;;;;5127766;27;20064;-90
2022/12/24 09:26:13;;;;;;;25.15;5.47;;;9.80;99.90;;;;;;5111841;27;20085;-90
2022/12/24 09:28:39;;;;;;;;;;;9.90;99.90;;;;;;5112950;27;20042;-91
2022/12/24 09:31:05;;;;;;;21.98;4.75;;;9.90;99.90;;;;;;5095838;28;19922;-90
2022/12/24 09:33:34;;;;;;;24.38;4.97;;;9.90;99.90;;;;;;5092230;28;20128;-91
2022/12/24 09:36:00;;;;;;;30.85;4.78;;;10.00;99.90;;;;;;5118257;27;20081;-91
2022/12/24 09:38:25;;;;;;;24.30;5.10;;;10.00;99.90;;;;;;5130776;27;20035;-90
2022/12/24 09:40:53;;;;;;;22.63;4.68;;;10.00;99.90;;;;;;5113624;27;20488;-90
2022/12/24 09:43:22;;;;;;;29.33;4.95;;;10.00;99.90;;;;;;5096073;28;20401;-91
2022/12/24 09:46:06;;;;;;;30.17;4.47;;;10.00;99.90;;;;;;5091839;28;20063;-91
2022/12/24 09:48:40;;;;;;;28.27;5.20;;;10.00;99.90;;;;;;5104173;27;20035;-90
2022/12/24 09:51:38;;;;;;;25.13;3.78;;;10.10;99.90;;;;;;5112842;27;20035;-91
2022/12/24 09:54:50;;;;;;;24.33;5.30;;;10.10;99.90;;;;;;5106590;28;20083;-90
2022/12/24 09:57:30;;;;;;;26.83;5.03;;;10.20;99.90;;;;;;5084794;28;20051;-91
2022/12/24 09:59:56;;;;;;;24.95;4.43;;;10.30;99.90;;;;;;5077272;27;20031;-91
2022/12/24 10:02:21;;;;;;;28.95;5.30;;;10.30;99.90;;;;;;5111460;27;20035;-90
2022/12/24 10:04:48;;;;;;;25.27;4.90;;;10.30;99.90;;;;;;5095054;27;20055;-90
2022/12/24 10:07:28;;;;;;;16.25;3.45;;;10.30;99.90;;;;;;5103237;27;20047;-90
2022/12/24 10:10:18;;;;;;;17.83;4.32;;;10.30;99.90;;;;;;5113612;27;20054;-90
2022/12/24 10:13:01;;;;;;;19.35;3.60;;;10.20;99.90;;;;;;5112213;27;20043;-90
2022/12/24 10:15:42;;;;;;;20.70;4.32;;;10.20;99.90;;;;;;5131257;27;20071;-90
2022/12/24 10:18:37;;;;;;;20.98;3.65;;;10.20;99.90;;;;;;5095677;28;20043;-90
2022/12/24 10:21:14;;;;;;;24.58;3.85;;;10.20;99.90;;;;;;5111006;28;20050;-91
2022/12/24 10:23:44;;;;;;;28.63;4.60;;;10.20;99.90;;;;;;5099578;27;20062;-90
2022/12/24 10:26:42;;;;;;;20.23;4.10;;;10.20;99.90;;;;;;5112643;27;20444;-90
2022/12/24 10:29:11;;;;;;;16.35;3.72;;;10.20;99.90;;;;;;5112677;27;20039;-91
2022/12/24 10:31:46;;;;;;;20.17;3.88;;;10.10;99.90;;;;;;5086086;28;20092;-90
2022/12/24 10:34:18;;;;;;;15.75;3.03;;;10.10;99.90;;;;;;5110377;28;20036;-91
2022/12/24 10:36:44;;;;;;;10.70;2.72;;;10.10;99.90;;;;;;5096367;28;20051;-91
2022/12/24 10:39:17;;;;;;;20.80;3.75;;;10.20;99.90;;;;;;5092157;28;20044;-90
2022/12/24 10:41:43;;;;;;;21.08;3.53;;;10.20;99.90;;;;;;5092679;28;20489;-90
2022/12/24 10:44:16;;;;;;;20.27;3.65;;;10.30;99.90;;;;;;5110159;28;20050;-91
2022/12/24 10:46:44;;;;;;;21.40;5.55;;;10.30;99.90;;;;;;5111978;28;20051;-90
2022/12/24 10:49:16;;;;;;;24.70;4.07;;;10.30;99.90;;;;;;5103372;28;20134;-90
2022/12/24 10:52:01;;;;;;;18.70;3.67;;;10.30;99.90;;;;;;5110639;28;20396;-89
2022/12/24 10:54:28;;;;;;;23.90;4.93;;;10.30;99.90;;;;;;5097832;28;20152;-90
2022/12/24 10:56:59;;;;;;;20.38;4.03;;;10.30;99.90;;;;;;5109022;28;20633;-90
2022/12/24 10:59:41;;;;;;;21.50;4.07;;;10.40;99.90;;;;;;5092328;28;20035;-91
2022/12/24 11:02:37;;;;;;;29.52;4.78;;;10.40;99.90;;;;;;5107222;28;20055;-90
2022/12/24 11:05:22;;;;;;;28.70;6.13;;;10.50;99.90;;;;;;5050545;28;20056;-90
2022/12/24 11:08:02;;;;;;;18.92;3.97;;;10.60;99.90;;;;;;5048499;28;20053;-90
2022/12/24 11:10:29;;;;;;;28.52;5.43;;;10.70;99.90;;;;;;5051199;28;20440;-90
2022/12/24 11:12:55;;;;;;;29.33;5.80;;;10.70;99.90;;;;;;5050394;28;20049;-90
2022/12/24 11:15:31;;;;;;;23.65;3.75;;;10.70;99.90;;;;;;5067356;28;20052;-91
2022/12/24 11:18:03;;;;;;;20.48;4.10;;;10.70;99.90;;;;;;5049860;28;20047;-91
2022/12/24 11:20:33;;;;;;;22.95;4.65;;;10.70;99.90;;;;;;5050290;28;20048;-91
2022/12/24 11:23:00;;;;;;;27.67;5.20;;;10.70;99.90;;;;;;5067428;28;20442;-91
2022/12/24 11:25:30;;;;;;;28.08;6.07;;;10.70;99.90;;;;;;5049281;28;20051;-91
2022/12/24 11:28:09;;;;;;;27.65;5.40;;;10.70;99.90;;;;;;5050329;28;20057;-91
2022/12/24 11:30:35;;;;;;;20.15;3.75;;;10.60;99.90;;;;;;5067431;28;20037;-91
2022/12/24 11:33:01;;;;;;;26.75;5.43;;;10.60;99.90;;;;;;5053514;28;20049;-91
2022/12/24 11:35:29;;;;;;;27.95;5.85;;;10.60;99.90;;;;;;5069901;28;20110;-91
2022/12/24 11:38:06;;;;;;;30.42;5.38;;;10.60;99.90;;;;;;5053596;28;20124;-90
2022/12/24 11:40:38;;;;;;;19.20;4.88;;;10.60;99.90;;;;;;5062291;27;20048;-90
2022/12/24 11:43:06;;;;;;;21.80;4.28;;;10.60;99.90;;;;;;5105225;28;20039;-91
2022/12/24 11:45:32;;;;;;;23.55;4.63;;;10.60;99.90;;;;;;5095224;28;20111;-90
2022/12/24 11:47:59;;;;;;;28.75;5.55;;;10.70;99.90;;;;;;5094103;28;20043;-91
2022/12/24 11:50:30;;;;;;;20.40;3.75;;;10.70;99.90;;;;;;5111823;27;20605;-91
2022/12/24 11:53:02;;;;;;;23.85;5.32;;;10.70;99.90;;;;;;5115561;27;20050;-91
2022/12/24 11:55:39;;;;;;;34.03;5.55;;;10.70;99.90;;;;;;5105995;27;20040;-91
2022/12/24 11:58:13;;;;;;;21.00;4.38;;;10.70;99.90;;;;;;5112635;27;20093;-91
2022/12/24 12:00:41;;;;;;;17.92;3.28;;;10.70;99.90;;;;;;5112642;27;20113;-91
2022/12/24 12:03:35;;;;;;;24.60;4.22;;;10.70;99.90;;;;;;5094121;28;20043;-92
2022/12/24 12:06:06;;;;;;;25.90;4.93;;;10.70;99.90;;;;;;5051710;27;20489;-90
2022/12/24 12:08:33;;;;;;;26.15;4.90;;;10.70;99.90;;;;;;5094329;28;20393;-91
2022/12/24 12:11:01;;;;;;;20.52;3.75;;;10.80;99.90;;;;;;5094386;28;20043;-91
2022/12/24 12:13:32;;;;;;;28.85;4.45;;;10.70;99.90;;;;;;5093452;28;20051;-91
2022/12/24 12:16:24;;;;;;;27.98;3.92;;;10.70;99.90;;;;;;5094697;28;20048;-91
2022/12/24 12:19:02;;;;;;;20.17;4.55;;;10.80;99.90;;;;;;5106817;27;20128;-91
2022/12/24 12:21:48;;;;;;;18.27;3.20;;;10.70;99.90;;;;;;5115059;27;20039;-91
2022/12/24 12:24:32;;;;;;;22.48;3.92;;;10.80;99.90;;;;;;5113729;27;20043;-92
2022/12/24 12:27:14;;;;;;;22.02;3.80;;;10.90;99.90;;;;;;5113701;27;20496;-91
2022/12/24 12:29:51;;;;;;;17.33;3.83;;;11.00;99.90;;;;;;5112210;27;20078;-91
2022/12/24 12:32:43;;;;;;;25.05;4.05;;;11.10;99.90;;;;;;5093718;28;20039;-90
2022/12/24 12:35:23;;;;;;;13.23;2.88;;;11.10;99.90;;;;;;5092902;27;20123;-91
2022/12/24 12:38:04;;;;;;;23.40;4.15;;;11.20;99.90;;;;;;5132130;27;20377;-91
2022/12/24 12:41:02;;;;;;;22.40;3.45;;;11.40;99.90;;;;;;5114209;27;20117;-90
2022/12/24 12:44:05;;;;;;;20.17;4.22;;;11.60;99.90;;;;;;5124969;27;20131;-90
2022/12/24 12:46:49;;;;;;;19.50;4.68;;;11.60;99.90;;;;;;5096163;27;20058;-91
2022/12/24 12:49:56;;;;;;;18.90;4.07;;;11.70;99.90;;;;;;5100672;28;20046;-91
2022/12/24 12:52:43;;;;;;;15.25;3.00;;;11.60;99.90;;;;;;5008224;28;20136;-91
2022/12/24 12:55:33;;;;;;;25.20;3.38;;;11.60;99.90;;;;;;5010994;28;20041;-91
2022/12/24 12:58:46;;;;;;;18.45;3.58;;;11.60;99.90;;;;;;5028862;28;20404;-91
2022/12/24 13:01:17;;;;;;;18.67;3.45;;;11.50;99.90;;;;;;4982682;28;20209;-91
2022/12/24 13:04:01;;;;;;;16.35;2.95;;;11.40;99.90;;;;;;5020704;28;20052;-92
2022/12/24 13:06:26;;;;;;;24.42;5.72;;;11.30;99.90;;;;;;5028746;28;20084;-91
2022/12/24 13:09:16;;;;;;;19.25;3.45;;;11.40;99.90;;;;;;5028361;28;20136;-91